createdAt,value
2018-09-01T00:00:10.254Z,724.43
2018-09-01T00:01:10.725Z,724.42
2018-09-01T00:02:11.197Z,724.43
2018-09-01T00:03:11.670Z,724.42
2018-09-01T00:04:12.142Z,724.33
2018-09-01T00:05:12.614Z,724.34
2018-09-01T00:06:13.143Z,724.35
2018-09-01T00:07:13.560Z,724.37
2018-09-01T00:08:14.036Z,724.31
2018-09-01T00:09:14.505Z,724.25
2018-09-01T00:10:14.978Z,724.25
2018-09-01T00:11:15.465Z,724.23
2018-09-01T00:12:15.927Z,724.29
2018-09-01T00:13:16.397Z,724.30
2018-09-01T00:14:16.871Z,724.28
2018-09-01T00:15:17.344Z,724.25
2018-09-01T00:16:17.821Z,724.23
2018-09-01T00:17:18.293Z,724.21
2018-09-01T00:18:18.765Z,724.20
2018-09-01T00:19:19.238Z,724.26
2018-09-01T00:20:19.712Z,724.25
2018-09-01T00:21:20.184Z,724.26
2018-09-01T00:22:20.657Z,724.19
2018-09-01T00:23:21.133Z,724.19
2018-09-01T00:24:21.607Z,724.13
2018-09-01T00:25:22.076Z,724.14
2018-09-01T00:26:22.892Z,724.03
2018-09-01T00:27:23.024Z,724.15
2018-09-01T00:28:23.495Z,724.14
2018-09-01T00:29:23.966Z,724.15
2018-09-01T00:30:24.439Z,724.19
2018-09-01T00:31:24.911Z,724.22
2018-09-01T00:32:25.383Z,724.24
2018-09-01T00:33:25.858Z,724.13
2018-09-01T00:34:26.333Z,724.11
2018-09-01T00:35:26.798Z,724.16
2018-09-01T00:36:27.318Z,724.12
2018-09-01T00:37:27.755Z,724.15
2018-09-01T00:38:28.206Z,724.11
2018-09-01T00:39:28.677Z,724.09
2018-09-01T00:40:29.147Z,724.00
2018-09-01T00:41:29.620Z,724.11
2018-09-01T00:42:30.088Z,724.09
2018-09-01T00:43:30.557Z,724.11
2018-09-01T00:44:31.027Z,724.18
2018-09-01T00:45:31.496Z,724.26
2018-09-01T00:46:31.966Z,724.27
2018-09-01T00:47:32.438Z,724.15
2018-09-01T00:48:32.906Z,724.19
2018-09-01T00:49:33.375Z,724.17
2018-09-01T00:50:33.844Z,724.18
2018-09-01T00:51:34.315Z,724.16
2018-09-01T00:52:34.786Z,724.18
2018-09-01T00:53:35.255Z,724.20
2018-09-01T00:54:36.070Z,724.24
2018-09-01T00:55:36.193Z,724.24
2018-09-01T00:56:36.666Z,724.18
2018-09-01T00:57:37.131Z,724.23
2018-09-01T00:58:37.602Z,724.26
2018-09-01T00:59:38.072Z,724.27
2018-09-01T01:00:38.885Z,724.23
2018-09-01T01:01:39.011Z,724.26
2018-09-01T01:02:39.483Z,724.27
2018-09-01T01:03:39.954Z,724.27
2018-09-01T01:04:40.424Z,724.21
2018-09-01T01:05:40.894Z,724.25
2018-09-01T01:06:41.366Z,724.27
2018-09-01T01:07:41.845Z,724.27
2018-09-01T01:08:42.311Z,724.19
2018-09-01T01:09:42.784Z,724.23
2018-09-01T01:10:43.251Z,724.21
2018-09-01T01:11:43.720Z,724.23
2018-09-01T01:12:44.196Z,724.23
2018-09-01T01:13:44.662Z,724.16
2018-09-01T01:14:45.475Z,724.17
2018-09-01T01:15:45.607Z,724.15
2018-09-01T01:16:46.078Z,724.19
2018-09-01T01:17:46.549Z,724.20
2018-09-01T01:18:47.021Z,724.20
2018-09-01T01:19:47.496Z,724.20
2018-09-01T01:20:47.970Z,724.21
2018-09-01T01:21:48.441Z,724.17
2018-09-01T01:22:48.949Z,724.26
2018-09-01T01:23:49.383Z,724.23
2018-09-01T01:24:49.856Z,724.27
2018-09-01T01:25:50.329Z,724.26
2018-09-01T01:26:50.801Z,724.23
2018-09-01T01:27:51.274Z,724.24
2018-09-01T01:28:51.750Z,724.22
2018-09-01T01:29:52.222Z,724.24
2018-09-01T01:30:52.694Z,724.23
2018-09-01T01:31:53.217Z,724.23
2018-09-01T01:32:53.641Z,724.15
2018-09-01T01:33:54.113Z,724.12
2018-09-01T01:34:54.586Z,724.08
2018-09-01T01:35:55.059Z,724.11
2018-09-01T01:36:55.584Z,724.09
2018-09-01T01:37:56.007Z,724.11
2018-09-01T01:38:56.480Z,724.12
2018-09-01T01:39:56.953Z,724.15
2018-09-01T01:40:57.428Z,724.17
2018-09-01T01:41:57.898Z,724.19
2018-09-01T01:42:58.372Z,724.23
2018-09-01T01:43:58.845Z,724.24
2018-09-01T01:44:59.317Z,724.22
2018-09-01T01:45:59.790Z,724.22
2018-09-01T01:47:00.312Z,724.25
2018-09-01T01:48:00.734Z,724.27
2018-09-01T01:49:01.205Z,724.23
2018-09-01T01:50:01.678Z,724.22
2018-09-01T01:51:02.154Z,724.22
2018-09-01T01:52:02.620Z,724.19
2018-09-01T01:53:03.092Z,724.18
2018-09-01T01:54:03.561Z,724.17
2018-09-01T01:55:04.033Z,724.24
2018-09-01T01:56:04.503Z,724.20
2018-09-01T01:57:04.975Z,724.25
2018-09-01T01:58:05.445Z,724.25
2018-09-01T01:59:05.916Z,724.27
2018-09-01T02:00:06.386Z,724.26
2018-09-01T02:01:06.855Z,724.24
2018-09-01T02:02:07.375Z,724.20
2018-09-01T02:03:07.793Z,724.22
2018-09-01T02:04:08.266Z,724.18
2018-09-01T02:05:08.733Z,724.16
2018-09-01T02:06:09.201Z,724.16
2018-09-01T02:07:09.671Z,724.19
2018-09-01T02:08:10.144Z,724.12
2018-09-01T02:09:10.613Z,724.16
2018-09-01T02:10:11.081Z,724.15
2018-09-01T02:11:11.549Z,724.18
2018-09-01T02:12:12.019Z,724.19
2018-09-01T02:13:12.489Z,724.19
2018-09-01T02:14:12.960Z,724.20
2018-09-01T02:15:13.427Z,724.18
2018-09-01T02:16:13.900Z,724.17
2018-09-01T02:17:14.368Z,723.98
2018-09-01T02:18:14.838Z,724.05
2018-09-01T02:19:15.308Z,724.08
2018-09-01T02:20:15.787Z,724.14
2018-09-01T02:21:16.452Z,724.16
2018-09-01T02:22:16.718Z,724.18
2018-09-01T02:23:17.190Z,724.17
2018-09-01T02:24:17.660Z,724.15
2018-09-01T02:25:18.131Z,724.23
2018-09-01T02:26:18.602Z,724.16
2018-09-01T02:27:19.072Z,724.09
2018-09-01T02:28:19.544Z,724.06
2018-09-01T02:29:20.015Z,724.08
2018-09-01T02:30:20.484Z,724.08
2018-09-01T02:31:20.956Z,724.08
2018-09-01T02:32:21.478Z,724.14
2018-09-01T02:33:21.902Z,724.14
2018-09-01T02:34:22.371Z,724.16
2018-09-01T02:35:23.044Z,724.07
2018-09-01T02:36:23.316Z,724.05
2018-09-01T02:37:23.785Z,724.12
2018-09-01T02:38:24.258Z,724.15
2018-09-01T02:39:24.729Z,724.12
2018-09-01T02:40:25.202Z,724.13
2018-09-01T02:41:25.675Z,724.11
2018-09-01T02:42:26.147Z,724.10
2018-09-01T02:43:26.618Z,724.14
2018-09-01T02:44:27.091Z,724.10
2018-09-01T02:45:27.564Z,724.03
2018-09-01T02:46:28.035Z,724.08
2018-09-01T02:47:28.507Z,724.03
2018-09-01T02:48:28.980Z,724.07
2018-09-01T02:49:29.454Z,724.02
2018-09-01T02:50:29.926Z,724.03
2018-09-01T02:51:30.398Z,724.07
2018-09-01T02:52:30.876Z,724.01
2018-09-01T02:53:31.344Z,723.99
2018-09-01T02:54:31.819Z,724.08
2018-09-01T02:55:32.291Z,723.97
2018-09-01T02:56:32.766Z,723.99
2018-09-01T02:57:33.237Z,724.01
2018-09-01T02:58:33.709Z,724.00
2018-09-01T02:59:34.184Z,724.03
2018-09-01T03:00:34.997Z,723.94
2018-09-01T03:01:35.129Z,724.03
2018-09-01T03:02:35.602Z,723.99
2018-09-01T03:03:36.077Z,723.98
2018-09-01T03:04:36.549Z,724.05
2018-09-01T03:05:37.022Z,724.10
2018-09-01T03:06:37.493Z,724.06
2018-09-01T03:07:37.967Z,724.03
2018-09-01T03:08:38.439Z,724.00
2018-09-01T03:09:38.913Z,724.06
2018-09-01T03:10:39.384Z,724.01
2018-09-01T03:11:40.197Z,724.01
2018-09-01T03:12:40.380Z,724.01
2018-09-01T03:13:40.798Z,724.02
2018-09-01T03:14:41.271Z,724.00
2018-09-01T03:15:41.744Z,724.00
2018-09-01T03:16:42.554Z,724.04
2018-09-01T03:17:42.683Z,724.01
2018-09-01T03:18:43.157Z,724.01
2018-09-01T03:19:43.663Z,724.04
2018-09-01T03:20:44.095Z,724.02
2018-09-01T03:21:44.566Z,724.00
2018-09-01T03:22:45.035Z,724.01
2018-09-01T03:23:45.507Z,723.98
2018-09-01T03:24:45.976Z,723.93
2018-09-01T03:25:46.443Z,724.01
2018-09-01T03:26:46.913Z,723.96
2018-09-01T03:27:47.433Z,723.84
2018-09-01T03:28:47.852Z,723.93
2018-09-01T03:29:48.324Z,723.88
2018-09-01T03:30:48.792Z,723.87
2018-09-01T03:31:49.261Z,723.88
2018-09-01T03:32:49.729Z,723.79
2018-09-01T03:33:50.199Z,723.89
2018-09-01T03:34:50.668Z,723.78
2018-09-01T03:35:51.178Z,723.81
2018-09-01T03:36:51.609Z,723.75
2018-09-01T03:37:52.128Z,723.68
2018-09-01T03:38:52.546Z,723.77
2018-09-01T03:39:53.015Z,723.76
2018-09-01T03:40:53.484Z,723.81
2018-09-01T03:41:53.955Z,723.80
2018-09-01T03:42:54.425Z,723.74
2018-09-01T03:43:54.899Z,723.74
2018-09-01T03:44:55.365Z,723.80
2018-09-01T03:45:55.835Z,723.76
2018-09-01T03:46:56.345Z,723.80
2018-09-01T03:47:56.775Z,723.72
2018-09-01T03:48:57.248Z,723.75
2018-09-01T03:49:57.717Z,723.72
2018-09-01T03:50:58.188Z,723.79
2018-09-01T03:51:58.656Z,723.80
2018-09-01T03:52:59.126Z,723.86
2018-09-01T03:53:59.599Z,723.86
2018-09-01T03:55:00.068Z,723.87
2018-09-01T03:56:00.539Z,723.85
2018-09-01T03:57:01.012Z,723.83
2018-09-01T03:58:01.482Z,723.91
2018-09-01T03:59:01.955Z,723.83
2018-09-01T04:00:02.425Z,723.83
2018-09-01T04:01:02.896Z,723.87
2018-09-01T04:02:03.371Z,723.93
2018-09-01T04:03:03.840Z,723.88
2018-09-01T04:04:04.311Z,723.96
2018-09-01T04:05:04.782Z,723.90
2018-09-01T04:06:05.255Z,723.85
2018-09-01T04:07:05.730Z,723.70
2018-09-01T04:08:06.198Z,723.72
2018-09-01T04:09:06.671Z,723.76
2018-09-01T04:10:07.144Z,723.68
2018-09-01T04:11:07.614Z,723.67
2018-09-01T04:12:08.087Z,723.69
2018-09-01T04:13:08.563Z,723.65
2018-09-01T04:14:09.032Z,723.65
2018-09-01T04:15:09.504Z,723.62
2018-09-01T04:16:09.977Z,723.64
2018-09-01T04:17:10.449Z,723.67
2018-09-01T04:18:10.921Z,723.65
2018-09-01T04:19:11.396Z,723.62
2018-09-01T04:20:11.867Z,723.57
2018-09-01T04:21:12.339Z,723.67
2018-09-01T04:22:12.813Z,723.77
2018-09-01T04:23:13.338Z,723.71
2018-09-01T04:24:13.758Z,723.72
2018-09-01T04:25:14.231Z,723.71
2018-09-01T04:26:14.705Z,723.68
2018-09-01T04:27:15.179Z,723.68
2018-09-01T04:28:15.654Z,723.81
2018-09-01T04:29:16.125Z,723.66
2018-09-01T04:30:16.599Z,723.71
2018-09-01T04:31:17.072Z,723.70
2018-09-01T04:32:17.543Z,723.68
2018-09-01T04:33:18.017Z,723.67
2018-09-01T04:34:18.492Z,723.68
2018-09-01T04:35:18.961Z,723.64
2018-09-01T04:36:19.434Z,723.72
2018-09-01T04:37:19.911Z,723.77
2018-09-01T04:38:20.380Z,723.78
2018-09-01T04:39:20.853Z,723.76
2018-09-01T04:40:21.324Z,723.79
2018-09-01T04:41:21.797Z,723.73
2018-09-01T04:42:22.268Z,723.79
2018-09-01T04:43:22.740Z,723.72
2018-09-01T04:44:23.211Z,723.67
2018-09-01T04:45:23.684Z,723.72
2018-09-01T04:46:24.155Z,723.66
2018-09-01T04:47:24.623Z,723.72
2018-09-01T04:48:25.100Z,723.73
2018-09-01T04:49:25.567Z,723.76
2018-09-01T04:50:26.036Z,723.75
2018-09-01T04:51:26.505Z,723.71
2018-09-01T04:52:27.317Z,723.70
2018-09-01T04:53:27.454Z,723.61
2018-09-01T04:54:27.915Z,723.70
2018-09-01T04:55:28.388Z,723.64
2018-09-01T04:56:28.860Z,723.73
2018-09-01T04:57:29.324Z,723.67
2018-09-01T04:58:29.793Z,723.68
2018-09-01T04:59:30.262Z,723.69
2018-09-01T05:00:30.731Z,723.68
2018-09-01T05:01:31.200Z,723.72
2018-09-01T05:02:31.671Z,723.69
2018-09-01T05:03:32.139Z,723.52
2018-09-01T05:04:32.609Z,723.63
2018-09-01T05:05:33.078Z,723.65
2018-09-01T05:06:33.551Z,723.67
2018-09-01T05:07:34.023Z,723.72
2018-09-01T05:08:34.487Z,723.77
2018-09-01T05:09:34.958Z,723.73
2018-09-01T05:10:35.426Z,723.73
2018-09-01T05:11:35.896Z,723.72
2018-09-01T05:12:36.366Z,723.69
2018-09-01T05:13:36.834Z,723.65
2018-09-01T05:14:37.308Z,723.69
2018-09-01T05:15:37.776Z,723.68
2018-09-01T05:16:38.246Z,723.65
2018-09-01T05:17:38.717Z,723.68
2018-09-01T05:18:39.187Z,723.61
2018-09-01T05:19:39.660Z,723.76
2018-09-01T05:20:40.126Z,723.74
2018-09-01T05:21:40.598Z,723.76
2018-09-01T05:22:41.069Z,723.73
2018-09-01T05:23:41.539Z,723.78
2018-09-01T05:24:42.014Z,723.80
2018-09-01T05:25:42.481Z,723.77
2018-09-01T05:26:42.951Z,723.80
2018-09-01T05:27:43.423Z,723.73
2018-09-01T05:28:43.894Z,723.77
2018-09-01T05:29:44.366Z,723.80
2018-09-01T05:30:44.840Z,723.77
2018-09-01T05:31:45.308Z,723.77
2018-09-01T05:32:45.779Z,723.72
2018-09-01T05:33:46.250Z,723.72
2018-09-01T05:34:46.723Z,723.71
2018-09-01T05:35:47.193Z,723.74
2018-09-01T05:36:47.665Z,723.71
2018-09-01T05:37:48.137Z,723.78
2018-09-01T05:38:48.659Z,723.72
2018-09-01T05:39:49.088Z,723.81
2018-09-01T05:40:49.554Z,723.83
2018-09-01T05:41:50.026Z,723.78
2018-09-01T05:42:50.498Z,723.82
2018-09-01T05:43:51.009Z,723.82
2018-09-01T05:44:51.442Z,723.80
2018-09-01T05:45:51.914Z,723.79
2018-09-01T05:46:52.391Z,723.77
2018-09-01T05:47:52.859Z,723.79
2018-09-01T05:48:53.330Z,723.77
2018-09-01T05:49:53.803Z,723.79
2018-09-01T05:50:54.296Z,723.80
2018-09-01T05:51:54.750Z,723.83
2018-09-01T05:52:55.226Z,723.84
2018-09-01T05:53:55.695Z,723.81
2018-09-01T05:54:56.169Z,723.88
2018-09-01T05:55:56.642Z,723.80
2018-09-01T05:56:57.114Z,723.76
2018-09-01T05:57:57.587Z,723.80
2018-09-01T05:58:58.063Z,723.85
2018-09-01T05:59:58.533Z,723.85
2018-09-01T06:00:59.008Z,723.76
2018-09-01T06:01:59.480Z,723.81
2018-09-01T06:02:59.952Z,723.88
2018-09-01T06:04:00.427Z,723.86
2018-09-01T06:05:00.900Z,723.95
2018-09-01T06:06:01.431Z,723.90
2018-09-01T06:07:01.844Z,723.89
2018-09-01T06:08:02.318Z,723.90
2018-09-01T06:09:02.788Z,724.00
2018-09-01T06:10:03.263Z,723.97
2018-09-01T06:11:03.733Z,724.01
2018-09-01T06:12:04.206Z,724.03
2018-09-01T06:13:04.678Z,723.99
2018-09-01T06:14:05.151Z,724.03
2018-09-01T06:15:05.622Z,724.01
2018-09-01T06:16:06.095Z,723.92
2018-09-01T06:17:06.565Z,723.93
2018-09-01T06:18:07.035Z,723.88
2018-09-01T06:19:07.526Z,723.99
2018-09-01T06:20:07.977Z,723.93
2018-09-01T06:21:08.447Z,723.95
2018-09-01T06:22:08.915Z,723.96
2018-09-01T06:23:09.386Z,723.81
2018-09-01T06:24:09.856Z,723.86
2018-09-01T06:25:10.327Z,723.84
2018-09-01T06:26:10.796Z,723.94
2018-09-01T06:27:11.265Z,723.93
2018-09-01T06:28:11.737Z,723.97
2018-09-01T06:29:12.256Z,723.94
2018-09-01T06:30:12.787Z,723.96
2018-09-01T06:31:13.154Z,723.90
2018-09-01T06:32:13.612Z,723.84
2018-09-01T06:33:14.083Z,723.81
2018-09-01T06:34:14.558Z,723.87
2018-09-01T06:35:15.023Z,723.91
2018-09-01T06:36:15.490Z,723.91
2018-09-01T06:37:15.959Z,723.88
2018-09-01T06:38:16.433Z,723.95
2018-09-01T06:39:16.899Z,724.00
2018-09-01T06:40:17.369Z,723.91
2018-09-01T06:41:17.839Z,723.89
2018-09-01T06:42:18.308Z,723.98
2018-09-01T06:43:18.777Z,723.86
2018-09-01T06:44:19.248Z,723.86
2018-09-01T06:45:19.717Z,723.86
2018-09-01T06:46:20.187Z,723.88
2018-09-01T06:47:20.660Z,723.90
2018-09-01T06:48:21.136Z,723.98
2018-09-01T06:49:21.598Z,723.98
2018-09-01T06:50:22.071Z,724.00
2018-09-01T06:51:22.585Z,723.96
2018-09-01T06:52:23.010Z,723.97
2018-09-01T06:53:23.482Z,724.08
2018-09-01T06:54:24.002Z,723.97
2018-09-01T06:55:24.423Z,724.07
2018-09-01T06:56:24.896Z,724.05
2018-09-01T06:57:25.398Z,724.15
2018-09-01T06:58:25.837Z,724.17
2018-09-01T06:59:26.311Z,724.05
2018-09-01T07:00:26.779Z,724.13
2018-09-01T07:01:27.253Z,724.11
2018-09-01T07:02:27.723Z,724.14
2018-09-01T07:03:28.194Z,724.09
2018-09-01T07:04:28.664Z,724.14
2018-09-01T07:05:29.138Z,724.19
2018-09-01T07:06:29.609Z,724.20
2018-09-01T07:07:30.087Z,724.18
2018-09-01T07:08:30.553Z,724.24
2018-09-01T07:09:31.033Z,724.26
2018-09-01T07:10:31.496Z,724.22
2018-09-01T07:11:31.970Z,724.14
2018-09-01T07:12:32.444Z,724.17
2018-09-01T07:13:32.914Z,724.21
2018-09-01T07:14:33.388Z,724.22
2018-09-01T07:15:33.859Z,724.23
2018-09-01T07:16:34.333Z,724.22
2018-09-01T07:17:34.805Z,724.26
2018-09-01T07:18:35.279Z,724.20
2018-09-01T07:19:35.749Z,724.32
2018-09-01T07:20:36.226Z,724.25
2018-09-01T07:21:36.702Z,724.31
2018-09-01T07:22:37.169Z,724.24
2018-09-01T07:23:37.641Z,724.28
2018-09-01T07:24:38.114Z,724.26
2018-09-01T07:25:38.588Z,724.29
2018-09-01T07:26:39.062Z,724.31
2018-09-01T07:27:39.537Z,724.38
2018-09-01T07:28:40.006Z,724.31
2018-09-01T07:29:40.486Z,724.34
2018-09-01T07:30:41.085Z,724.22
2018-09-01T07:31:41.429Z,724.26
2018-09-01T07:32:41.937Z,724.28
2018-09-01T07:33:42.374Z,724.21
2018-09-01T07:34:42.848Z,724.34
2018-09-01T07:35:43.322Z,724.26
2018-09-01T07:36:43.793Z,724.33
2018-09-01T07:37:44.266Z,724.34
2018-09-01T07:38:44.738Z,724.27
2018-09-01T07:39:45.213Z,724.37
2018-09-01T07:40:45.683Z,724.41
2018-09-01T07:41:46.155Z,724.39
2018-09-01T07:42:46.630Z,724.47
2018-09-01T07:43:47.100Z,724.43
2018-09-01T07:44:47.572Z,724.48
2018-09-01T07:45:48.042Z,724.50
2018-09-01T07:46:48.514Z,724.46
2018-09-01T07:47:48.984Z,724.54
2018-09-01T07:48:49.453Z,724.54
2018-09-01T07:49:49.939Z,724.56
2018-09-01T07:50:50.397Z,724.61
2018-09-01T07:51:50.866Z,724.58
2018-09-01T07:52:51.336Z,724.55
2018-09-01T07:53:51.811Z,724.62
2018-09-01T07:54:52.275Z,724.60
2018-09-01T07:55:52.758Z,724.59
2018-09-01T07:56:53.216Z,724.62
2018-09-01T07:57:53.684Z,724.60
2018-09-01T07:58:54.177Z,724.59
2018-09-01T07:59:54.623Z,724.65
2018-09-01T08:00:55.095Z,724.66
2018-09-01T08:01:55.564Z,724.62
2018-09-01T08:02:56.032Z,724.55
2018-09-01T08:03:56.507Z,724.63
2018-09-01T08:04:56.971Z,724.61
2018-09-01T08:05:57.442Z,724.62
2018-09-01T08:06:57.909Z,724.65
2018-09-01T08:07:58.382Z,724.66
2018-09-01T08:08:58.850Z,724.66
2018-09-01T08:09:59.321Z,724.68
2018-09-01T08:10:59.790Z,724.67
2018-09-01T08:12:00.261Z,724.71
2018-09-01T08:13:00.730Z,724.68
2018-09-01T08:14:01.343Z,724.68
2018-09-01T08:15:01.673Z,724.66
2018-09-01T08:16:02.141Z,724.67
2018-09-01T08:17:02.610Z,724.68
2018-09-01T08:18:03.081Z,724.60
2018-09-01T08:19:03.553Z,724.71
2018-09-01T08:20:04.025Z,724.72
2018-09-01T08:21:04.494Z,724.69
2018-09-01T08:22:04.963Z,724.72
2018-09-01T08:23:05.440Z,724.68
2018-09-01T08:24:05.907Z,724.66
2018-09-01T08:25:06.377Z,724.70
2018-09-01T08:26:06.925Z,724.72
2018-09-01T08:27:07.319Z,724.68
2018-09-01T08:28:07.793Z,724.70
2018-09-01T08:29:08.263Z,724.68
2018-09-01T08:30:08.734Z,724.59
2018-09-01T08:31:09.205Z,724.70
2018-09-01T08:32:09.679Z,724.62
2018-09-01T08:33:10.150Z,724.61
2018-09-01T08:34:10.624Z,724.60
2018-09-01T08:35:11.146Z,724.60
2018-09-01T08:36:11.567Z,724.65
2018-09-01T08:37:12.037Z,724.61
2018-09-01T08:38:12.511Z,724.77
2018-09-01T08:39:12.983Z,724.65
2018-09-01T08:40:13.504Z,724.67
2018-09-01T08:41:13.927Z,724.59
2018-09-01T08:42:14.400Z,724.65
2018-09-01T08:43:14.873Z,724.67
2018-09-01T08:44:15.347Z,724.58
2018-09-01T08:45:15.824Z,724.65
2018-09-01T08:46:16.292Z,724.61
2018-09-01T08:47:16.763Z,724.69
2018-09-01T08:48:17.239Z,724.63
2018-09-01T08:49:17.713Z,724.62
2018-09-01T08:50:18.184Z,724.72
2018-09-01T08:51:18.658Z,724.64
2018-09-01T08:52:19.133Z,724.68
2018-09-01T08:53:19.604Z,724.46
2018-09-01T08:54:20.078Z,724.60
2018-09-01T08:55:20.551Z,724.71
2018-09-01T08:56:21.027Z,724.69
2018-09-01T08:57:21.498Z,724.77
2018-09-01T08:58:21.971Z,724.65
2018-09-01T08:59:22.450Z,724.67
2018-09-01T09:00:22.920Z,724.77
2018-09-01T09:01:23.392Z,724.72
2018-09-01T09:02:23.865Z,724.72
2018-09-01T09:03:24.338Z,724.66
2018-09-01T09:04:24.810Z,724.81
2018-09-01T09:05:25.337Z,724.66
2018-09-01T09:06:25.755Z,724.66
2018-09-01T09:07:26.229Z,724.72
2018-09-01T09:08:26.703Z,724.78
2018-09-01T09:09:27.172Z,724.73
2018-09-01T09:10:27.646Z,724.76
2018-09-01T09:11:28.119Z,724.77
2018-09-01T09:12:28.588Z,724.78
2018-09-01T09:13:29.057Z,724.74
2018-09-01T09:14:29.529Z,724.74
2018-09-01T09:15:29.998Z,724.82
2018-09-01T09:16:30.476Z,724.82
2018-09-01T09:17:30.940Z,724.82
2018-09-01T09:18:31.424Z,724.88
2018-09-01T09:19:31.882Z,724.85
2018-09-01T09:20:32.351Z,724.87
2018-09-01T09:21:32.821Z,724.84
2018-09-01T09:22:33.290Z,724.86
2018-09-01T09:23:33.764Z,724.81
2018-09-01T09:24:34.233Z,724.85
2018-09-01T09:25:34.702Z,724.81
2018-09-01T09:26:35.172Z,724.87
2018-09-01T09:27:35.642Z,724.84
2018-09-01T09:28:36.112Z,724.94
2018-09-01T09:29:36.584Z,724.79
2018-09-01T09:30:37.049Z,724.88
2018-09-01T09:31:37.521Z,724.96
2018-09-01T09:32:37.993Z,724.93
2018-09-01T09:33:38.462Z,724.85
2018-09-01T09:34:38.940Z,724.91
2018-09-01T09:35:39.403Z,724.90
2018-09-01T09:36:39.875Z,724.84
2018-09-01T09:37:40.344Z,724.86
2018-09-01T09:38:40.817Z,724.85
2018-09-01T09:39:41.284Z,724.80
2018-09-01T09:40:41.757Z,724.81
2018-09-01T09:41:42.232Z,724.81
2018-09-01T09:42:42.700Z,724.78
2018-09-01T09:43:43.168Z,724.90
2018-09-01T09:44:43.642Z,724.83
2018-09-01T09:45:44.114Z,724.89
2018-09-01T09:46:44.582Z,724.84
2018-09-01T09:47:45.056Z,724.87
2018-09-01T09:48:45.530Z,724.87
2018-09-01T09:49:45.999Z,724.81
2018-09-01T09:50:46.471Z,724.76
2018-09-01T09:51:46.946Z,724.83
2018-09-01T09:52:47.417Z,724.89
2018-09-01T09:53:47.888Z,724.83
2018-09-01T09:54:48.363Z,724.75
2018-09-01T09:55:48.834Z,724.84
2018-09-01T09:56:49.307Z,724.73
2018-09-01T09:57:49.779Z,724.84
2018-09-01T09:58:50.253Z,724.88
2018-09-01T09:59:50.727Z,724.91
2018-09-01T10:00:51.260Z,724.86
2018-09-01T10:01:51.672Z,724.85
2018-09-01T10:02:52.147Z,724.84
2018-09-01T10:03:52.621Z,724.85
2018-09-01T10:04:53.096Z,724.90
2018-09-01T10:05:53.618Z,724.82
2018-09-01T10:06:54.041Z,724.83
2018-09-01T10:07:54.518Z,724.87
2018-09-01T10:08:54.990Z,724.91
2018-09-01T10:09:55.464Z,724.95
2018-09-01T10:10:55.947Z,724.94
2018-09-01T10:11:56.415Z,724.99
2018-09-01T10:12:56.887Z,725.01
2018-09-01T10:13:57.360Z,725.00
2018-09-01T10:14:57.833Z,724.90
2018-09-01T10:15:58.446Z,724.99
2018-09-01T10:16:58.783Z,724.83
2018-09-01T10:17:59.252Z,725.01
2018-09-01T10:18:59.727Z,724.97
2018-09-01T10:20:00.216Z,724.96
2018-09-01T10:21:00.673Z,724.97
2018-09-01T10:22:01.147Z,725.00
2018-09-01T10:23:01.617Z,724.95
2018-09-01T10:24:02.088Z,725.00
2018-09-01T10:25:02.562Z,724.99
2018-09-01T10:26:03.032Z,724.97
2018-09-01T10:27:03.559Z,725.03
2018-09-01T10:28:03.976Z,725.09
2018-09-01T10:29:04.447Z,725.03
2018-09-01T10:30:04.918Z,724.99
2018-09-01T10:31:05.389Z,725.09
2018-09-01T10:32:05.861Z,725.05
2018-09-01T10:33:06.348Z,725.07
2018-09-01T10:34:06.801Z,725.01
2018-09-01T10:35:07.272Z,725.05
2018-09-01T10:36:07.741Z,725.00
2018-09-01T10:37:08.213Z,724.89
2018-09-01T10:38:08.683Z,725.02
2018-09-01T10:39:09.154Z,725.10
2018-09-01T10:40:09.830Z,725.17
2018-09-01T10:41:10.103Z,725.08
2018-09-01T10:42:10.566Z,725.17
2018-09-01T10:43:11.035Z,725.12
2018-09-01T10:44:11.505Z,725.23
2018-09-01T10:45:11.977Z,725.14
2018-09-01T10:46:12.471Z,725.24
2018-09-01T10:47:12.918Z,725.18
2018-09-01T10:48:13.406Z,725.25
2018-09-01T10:49:13.859Z,725.28
2018-09-01T10:50:14.329Z,725.23
2018-09-01T10:51:14.800Z,725.20
2018-09-01T10:52:15.269Z,725.21
2018-09-01T10:53:15.743Z,725.28
2018-09-01T10:54:16.218Z,725.26
2018-09-01T10:55:16.686Z,725.32
2018-09-01T10:56:17.156Z,725.24
2018-09-01T10:57:17.629Z,725.25
2018-09-01T10:58:18.101Z,725.21
2018-09-01T10:59:18.639Z,725.28
2018-09-01T11:00:19.046Z,725.29
2018-09-01T11:01:19.519Z,725.24
2018-09-01T11:02:19.990Z,725.29
2018-09-01T11:03:20.467Z,725.29
2018-09-01T11:04:21.140Z,725.27
2018-09-01T11:05:21.488Z,725.31
2018-09-01T11:06:21.882Z,725.31
2018-09-01T11:07:22.355Z,725.35
2018-09-01T11:08:22.831Z,725.27
2018-09-01T11:09:23.303Z,725.26
2018-09-01T11:10:23.776Z,725.20
2018-09-01T11:11:24.250Z,725.29
2018-09-01T11:12:24.730Z,725.25
2018-09-01T11:13:25.201Z,725.25
2018-09-01T11:14:25.673Z,725.26
2018-09-01T11:15:26.168Z,725.26
2018-09-01T11:16:26.623Z,725.31
2018-09-01T11:17:27.103Z,725.24
2018-09-01T11:18:27.568Z,725.31
2018-09-01T11:19:28.046Z,725.22
2018-09-01T11:20:28.518Z,725.31
2018-09-01T11:21:28.992Z,725.32
2018-09-01T11:22:29.464Z,725.33
2018-09-01T11:23:29.939Z,725.38
2018-09-01T11:24:30.415Z,725.34
2018-09-01T11:25:30.887Z,725.36
2018-09-01T11:26:31.364Z,725.36
2018-09-01T11:27:31.910Z,725.40
2018-09-01T11:28:32.308Z,725.38
2018-09-01T11:29:32.779Z,725.41
2018-09-01T11:30:33.253Z,725.34
2018-09-01T11:31:33.726Z,725.37
2018-09-01T11:32:34.199Z,725.37
2018-09-01T11:33:34.671Z,725.41
2018-09-01T11:34:35.184Z,725.41
2018-09-01T11:35:35.615Z,725.45
2018-09-01T11:36:36.095Z,725.41
2018-09-01T11:37:36.574Z,725.41
2018-09-01T11:38:37.028Z,725.38
2018-09-01T11:39:37.501Z,725.40
2018-09-01T11:40:37.972Z,725.43
2018-09-01T11:41:38.442Z,725.42
2018-09-01T11:42:39.029Z,725.39
2018-09-01T11:43:39.385Z,725.35
2018-09-01T11:44:39.857Z,725.31
2018-09-01T11:45:40.328Z,725.32
2018-09-01T11:46:40.798Z,725.35
2018-09-01T11:47:41.273Z,725.37
2018-09-01T11:48:41.751Z,725.30
2018-09-01T11:49:42.213Z,725.31
2018-09-01T11:50:42.681Z,725.35
2018-09-01T11:51:43.151Z,725.38
2018-09-01T11:52:43.623Z,725.40
2018-09-01T11:53:44.145Z,725.39
2018-09-01T11:54:44.574Z,725.32
2018-09-01T11:55:45.034Z,725.32
2018-09-01T11:56:45.506Z,725.38
2018-09-01T11:57:45.975Z,725.34
2018-09-01T11:58:46.467Z,725.37
2018-09-01T11:59:46.917Z,725.38
2018-09-01T12:00:47.389Z,725.39
2018-09-01T12:01:47.864Z,725.43
2018-09-01T12:02:48.333Z,725.36
2018-09-01T12:03:48.813Z,725.37
2018-09-01T12:04:49.278Z,725.39
2018-09-01T12:05:49.749Z,725.39
2018-09-01T12:06:50.221Z,725.38
2018-09-01T12:07:50.692Z,725.40
2018-09-01T12:08:51.199Z,725.43
2018-09-01T12:09:51.639Z,725.40
2018-09-01T12:10:52.112Z,725.47
2018-09-01T12:11:52.618Z,725.44
2018-09-01T12:12:53.058Z,725.46
2018-09-01T12:13:53.550Z,725.50
2018-09-01T12:14:54.005Z,725.51
2018-09-01T12:15:54.529Z,725.47
2018-09-01T12:16:54.954Z,725.51
2018-09-01T12:17:55.430Z,725.50
2018-09-01T12:18:55.901Z,725.40
2018-09-01T12:19:56.378Z,725.46
2018-09-01T12:20:56.852Z,725.48
2018-09-01T12:21:57.325Z,725.54
2018-09-01T12:22:57.798Z,725.50
2018-09-01T12:23:58.275Z,725.53
2018-09-01T12:24:58.749Z,725.50
2018-09-01T12:25:59.222Z,725.52
2018-09-01T12:26:59.700Z,725.52
2018-09-01T12:28:00.171Z,725.57
2018-09-01T12:29:00.646Z,725.51
2018-09-01T12:30:01.121Z,725.57
2018-09-01T12:31:01.593Z,725.52
2018-09-01T12:32:02.073Z,725.54
2018-09-01T12:33:02.544Z,725.55
2018-09-01T12:34:03.021Z,725.52